Terminal Aerodrome Forecast
Issued by NWS Grand Forks, ND

Home | Current Version | Previous Version | Text Only | Print | Product List | Glossary Off
Versions: 1 2 3 4 5 6 7 8 9 10 11 12 13 14 15 16 17 18 19 20

720
FTUS43 KFGF 071133
TAFFAR
TAF
KFAR 071133Z 0712/0812 29026G33KT 5SM -SN BLSN OVC035
     FM071700 30026G38KT 2SM -SN BLSN OVC040
     FM072000 31027G39KT 1 1/2SM -SN BLSN OVC035
     FM080000 31025G35KT P6SM OVC025
     FM080500 31018KT P6SM OVC025=

USA.gov is the U.S. government's official web portal to all federal, state and local government web resources and services.